createdAt,value
2023-03-02T00:01:26.966Z,0.40
2023-03-02T00:03:53.862Z,0.35
2023-03-02T00:06:20.292Z,0.34
2023-03-02T00:08:47.114Z,0.34
2023-03-02T00:11:15.478Z,0.34
2023-03-02T00:13:43.023Z,0.35
2023-03-02T00:16:09.545Z,0.36
2023-03-02T00:18:35.938Z,0.31
2023-03-02T00:21:02.246Z,0.23
2023-03-02T00:23:28.637Z,0.25
2023-03-02T00:25:54.994Z,0.27
2023-03-02T00:28:21.302Z,0.29
2023-03-02T00:30:47.616Z,0.27
2023-03-02T00:33:13.981Z,0.28
2023-03-02T00:35:40.955Z,0.27
2023-03-02T00:38:08.222Z,0.18
2023-03-02T00:40:34.864Z,0.13
2023-03-02T00:43:01.254Z,0.10
2023-03-02T00:45:27.572Z,0.11
2023-03-02T00:47:53.932Z,0.11
2023-03-02T00:50:20.238Z,0.08
2023-03-02T00:52:46.596Z,0.07
2023-03-02T00:55:12.919Z,0.07
2023-03-02T00:57:39.233Z,0.07
2023-03-02T01:00:05.934Z,0.08
2023-03-02T01:02:32.364Z,0.08
2023-03-02T01:04:58.719Z,0.11
2023-03-02T01:07:26.219Z,0.11
2023-03-02T01:09:52.532Z,0.10
2023-03-02T01:12:18.889Z,0.10
2023-03-02T01:14:47.048Z,0.09
2023-03-02T01:17:13.707Z,0.12
2023-03-02T01:19:40.478Z,0.11
2023-03-02T01:22:07.408Z,0.14
2023-03-02T01:24:33.824Z,0.14
2023-03-02T01:27:00.155Z,0.16
2023-03-02T01:29:26.592Z,0.16
2023-03-02T01:31:53.191Z,0.12
2023-03-02T01:34:19.648Z,0.12
2023-03-02T01:36:45.946Z,0.12
2023-03-02T01:39:15.926Z,0.09
2023-03-02T01:41:43.170Z,0.06
2023-03-02T01:44:29.445Z,0.05
2023-03-02T01:46:55.768Z,0.04
2023-03-02T01:49:22.285Z,0.03
2023-03-02T01:51:48.616Z,0.02
2023-03-02T01:54:22.776Z,0.01
2023-03-02T01:56:55.457Z,-0.05
2023-03-02T01:59:22.461Z,-0.13
2023-03-02T02:01:51.884Z,-0.19
2023-03-02T02:04:18.508Z,-0.21
2023-03-02T02:06:48.228Z,-0.23
2023-03-02T02:09:16.396Z,-0.25
2023-03-02T02:11:43.029Z,-0.29
2023-03-02T02:14:09.588Z,-0.27
2023-03-02T02:16:36.750Z,-0.31
2023-03-02T02:19:06.464Z,-0.34
2023-03-02T02:21:32.776Z,-0.37
2023-03-02T02:24:05.237Z,-0.36
2023-03-02T02:26:40.759Z,-0.36
2023-03-02T02:29:22.914Z,-0.33
2023-03-02T02:31:58.893Z,-0.34
2023-03-02T02:34:29.026Z,-0.34
2023-03-02T02:36:58.098Z,-0.32
2023-03-02T02:39:29.008Z,-0.28
2023-03-02T02:41:57.237Z,-0.21
2023-03-02T02:44:23.578Z,-0.22
2023-03-02T02:46:49.914Z,-0.21
2023-03-02T02:49:27.462Z,-0.17
2023-03-02T02:51:53.948Z,-0.18
2023-03-02T02:54:20.265Z,-0.20
2023-03-02T02:56:46.790Z,-0.25
2023-03-02T02:59:22.102Z,-0.26
2023-03-02T03:01:49.347Z,-0.33
2023-03-02T03:04:20.105Z,-0.36
2023-03-02T03:07:05.962Z,-0.36
2023-03-02T03:09:32.410Z,-0.37
2023-03-02T03:12:02.389Z,-0.38
2023-03-02T03:14:34.475Z,-0.37
2023-03-02T03:17:00.865Z,-0.35
2023-03-02T03:19:28.864Z,-0.32
2023-03-02T03:21:56.700Z,-0.29
2023-03-02T03:24:24.064Z,-0.29
2023-03-02T03:26:51.006Z,-0.33
2023-03-02T03:29:18.499Z,-0.31
2023-03-02T03:31:44.997Z,-0.33
2023-03-02T03:34:11.415Z,-0.33
2023-03-02T03:36:37.811Z,-0.33
2023-03-02T03:39:05.709Z,-0.31
2023-03-02T03:41:32.536Z,-0.34
2023-03-02T03:43:58.843Z,-0.34
2023-03-02T03:46:25.315Z,-0.33
2023-03-02T03:48:51.821Z,-0.33
2023-03-02T03:51:18.354Z,-0.34
2023-03-02T03:53:44.703Z,-0.31
2023-03-02T03:56:11.129Z,-0.27
2023-03-02T03:58:37.544Z,-0.27
2023-03-02T04:01:04.582Z,-0.32
2023-03-02T04:03:30.963Z,-0.35
2023-03-02T04:05:57.281Z,-0.34
2023-03-02T04:08:23.597Z,-0.35
2023-03-02T04:10:49.919Z,-0.32
2023-03-02T04:13:16.309Z,-0.32
2023-03-02T04:15:43.319Z,-0.31
2023-03-02T04:18:10.245Z,-0.31
2023-03-02T04:20:36.587Z,-0.38
2023-03-02T04:23:02.920Z,-0.41
2023-03-02T04:25:29.769Z,-0.39
2023-03-02T04:27:56.286Z,-0.36
2023-03-02T04:30:23.670Z,-0.33
2023-03-02T04:32:50.069Z,-0.27
2023-03-02T04:35:16.880Z,-0.28
2023-03-02T04:37:43.362Z,-0.26
2023-03-02T04:40:10.193Z,-0.22
2023-03-02T04:42:36.533Z,-0.21
2023-03-02T04:45:03.058Z,-0.21
2023-03-02T04:47:29.390Z,-0.22
2023-03-02T04:49:57.339Z,-0.21
2023-03-02T04:52:25.047Z,-0.22
2023-03-02T04:54:51.535Z,-0.24
2023-03-02T04:57:17.854Z,-0.26
2023-03-02T04:59:44.167Z,-0.25
2023-03-02T05:02:10.726Z,-0.25
2023-03-02T05:04:37.116Z,-0.27
2023-03-02T05:07:03.459Z,-0.32
2023-03-02T05:09:30.860Z,-0.32
2023-03-02T05:11:58.133Z,-0.29
2023-03-02T05:14:24.818Z,-0.25
2023-03-02T05:16:51.138Z,-0.24
2023-03-02T05:19:17.826Z,-0.22
2023-03-02T05:21:44.659Z,-0.20
2023-03-02T05:24:11.674Z,-0.19
2023-03-02T05:26:38.066Z,-0.24
2023-03-02T05:29:04.388Z,-0.22
2023-03-02T05:31:35.057Z,-0.18
2023-03-02T05:34:01.953Z,-0.17
2023-03-02T05:36:28.436Z,-0.15
2023-03-02T05:38:54.762Z,-0.16
2023-03-02T05:41:21.112Z,-0.18
2023-03-02T05:43:47.432Z,-0.18
2023-03-02T05:46:13.968Z,-0.19
2023-03-02T05:48:42.172Z,-0.19
2023-03-02T05:51:08.542Z,-0.14
2023-03-02T05:53:34.922Z,-0.14
2023-03-02T05:56:01.485Z,-0.17
2023-03-02T05:58:27.956Z,-0.16
2023-03-02T06:00:54.267Z,-0.18
2023-03-02T06:03:20.724Z,-0.19
2023-03-02T06:05:50.998Z,-0.24
2023-03-02T06:08:18.547Z,-0.23
2023-03-02T06:10:45.050Z,-0.23
2023-03-02T06:13:11.472Z,-0.22
2023-03-02T06:15:39.666Z,-0.22
2023-03-02T06:18:06.481Z,-0.25
2023-03-02T06:20:32.801Z,-0.22
2023-03-02T06:22:59.146Z,-0.16
2023-03-02T06:25:25.625Z,-0.16
2023-03-02T06:27:53.623Z,-0.12
2023-03-02T06:30:21.569Z,-0.11
2023-03-02T06:32:48.120Z,-0.10
2023-03-02T06:35:14.666Z,-0.11
2023-03-02T06:37:43.995Z,-0.14
2023-03-02T06:40:11.362Z,-0.16
2023-03-02T06:42:38.815Z,-0.13
2023-03-02T06:45:05.580Z,-0.14
2023-03-02T06:47:33.291Z,-0.13
2023-03-02T06:49:59.884Z,-0.09
2023-03-02T06:52:27.414Z,-0.06
2023-03-02T06:54:54.337Z,-0.01
2023-03-02T06:57:20.658Z,0.04
2023-03-02T06:59:46.977Z,0.05
2023-03-02T07:02:13.416Z,0.06
2023-03-02T07:04:39.807Z,0.08
2023-03-02T07:07:06.110Z,0.09
2023-03-02T07:09:33.982Z,0.10
2023-03-02T07:12:00.365Z,0.11
2023-03-02T07:14:26.698Z,0.16
2023-03-02T07:16:53.300Z,0.21
2023-03-02T07:19:19.656Z,0.32
2023-03-02T07:21:45.990Z,0.33
2023-03-02T07:24:12.298Z,0.34
2023-03-02T07:26:38.788Z,0.38
2023-03-02T07:29:05.114Z,0.41
2023-03-02T07:31:31.863Z,0.38
2023-03-02T07:33:58.511Z,0.40
2023-03-02T07:36:26.230Z,0.37
2023-03-02T07:38:52.574Z,0.40
2023-03-02T07:41:18.983Z,0.45
2023-03-02T07:43:45.348Z,0.49
2023-03-02T07:46:11.670Z,0.65
2023-03-02T07:48:38.018Z,0.79
2023-03-02T07:51:05.572Z,0.83
2023-03-02T07:53:31.979Z,0.86
2023-03-02T07:55:58.291Z,0.98
2023-03-02T07:58:24.592Z,0.94
2023-03-02T08:00:50.953Z,1.01
2023-03-02T08:03:17.269Z,1.09
2023-03-02T08:05:43.674Z,1.00
2023-03-02T08:08:10.069Z,1.01
2023-03-02T08:10:36.767Z,1.10
2023-03-02T08:13:03.583Z,1.08
2023-03-02T08:15:29.929Z,1.06
2023-03-02T08:17:56.251Z,1.08
2023-03-02T08:20:22.575Z,1.12
2023-03-02T08:22:48.878Z,1.17
2023-03-02T08:25:15.216Z,1.21
2023-03-02T08:27:41.624Z,1.23
2023-03-02T08:30:08.292Z,1.20
2023-03-02T08:32:34.712Z,1.12
2023-03-02T08:35:01.058Z,1.09
2023-03-02T08:37:27.372Z,1.14
2023-03-02T08:39:53.687Z,1.24
2023-03-02T08:42:20.042Z,1.35
2023-03-02T08:44:46.344Z,1.35
2023-03-02T08:47:13.017Z,1.42
2023-03-02T08:49:39.337Z,1.50
2023-03-02T08:52:05.797Z,1.44
2023-03-02T08:54:34.250Z,1.46
2023-03-02T08:57:01.566Z,1.34
2023-03-02T08:59:28.035Z,1.35
2023-03-02T09:01:54.346Z,1.46
2023-03-02T09:04:20.756Z,1.51
2023-03-02T09:06:47.377Z,1.48
2023-03-02T09:09:14.524Z,1.57
2023-03-02T09:11:42.276Z,1.62
2023-03-02T09:14:10.589Z,1.72
2023-03-02T09:16:37.185Z,1.83
2023-03-02T09:19:04.062Z,1.96
2023-03-02T09:21:30.404Z,2.04
2023-03-02T09:23:58.302Z,2.14
2023-03-02T09:26:25.577Z,2.05
2023-03-02T09:28:52.835Z,2.12
2023-03-02T09:31:19.866Z,2.17
2023-03-02T09:33:46.264Z,2.24
2023-03-02T09:36:15.478Z,2.31
2023-03-02T09:38:41.891Z,2.32
2023-03-02T09:41:20.253Z,2.31
2023-03-02T09:44:16.016Z,2.28
2023-03-02T09:46:48.288Z,2.28
2023-03-02T09:49:20.745Z,2.24
2023-03-02T09:51:50.567Z,2.25
2023-03-02T09:54:20.926Z,2.28
2023-03-02T09:56:52.621Z,2.39
2023-03-02T09:59:24.546Z,2.57
2023-03-02T10:02:03.242Z,2.58
2023-03-02T10:04:43.355Z,2.68
2023-03-02T10:07:14.061Z,2.75
2023-03-02T10:09:42.053Z,2.77
2023-03-02T10:12:34.869Z,2.77
2023-03-02T10:15:08.158Z,2.79
2023-03-02T10:17:40.350Z,2.78
2023-03-02T10:20:21.898Z,2.86
2023-03-02T10:22:51.569Z,2.91
2023-03-02T10:25:24.866Z,2.93
2023-03-02T10:27:53.277Z,2.87
2023-03-02T10:30:25.592Z,2.89
2023-03-02T10:32:52.449Z,2.94
2023-03-02T10:35:23.181Z,3.07
2023-03-02T10:37:57.282Z,3.17
2023-03-02T10:40:41.485Z,3.24
2023-03-02T10:43:14.023Z,3.32
2023-03-02T10:45:40.415Z,3.35
2023-03-02T10:48:11.286Z,3.35
2023-03-02T10:50:37.675Z,3.41
2023-03-02T10:53:06.547Z,3.32
2023-03-02T10:55:33.212Z,3.09
2023-03-02T10:58:00.926Z,3.25
2023-03-02T11:00:28.549Z,3.50
2023-03-02T11:02:56.175Z,3.57
2023-03-02T11:05:39.398Z,3.56
2023-03-02T11:08:08.721Z,3.38
2023-03-02T11:10:36.668Z,3.38
2023-03-02T11:13:15.811Z,3.40
2023-03-02T11:15:45.884Z,3.50
2023-03-02T11:18:24.036Z,3.63
2023-03-02T11:20:52.628Z,3.70
2023-03-02T11:23:21.713Z,3.79
2023-03-02T11:25:51.945Z,3.70
2023-03-02T11:28:26.093Z,3.57
2023-03-02T11:30:53.498Z,3.55
2023-03-02T11:33:24.318Z,3.59
2023-03-02T11:35:53.383Z,3.60
2023-03-02T11:38:32.545Z,3.58
2023-03-02T11:41:03.056Z,3.73
2023-03-02T11:43:29.403Z,3.83
2023-03-02T11:45:55.706Z,3.76
2023-03-02T11:48:34.262Z,3.84
2023-03-02T11:51:05.524Z,3.89
2023-03-02T11:53:51.882Z,3.83
2023-03-02T11:56:18.265Z,3.83
2023-03-02T11:58:46.584Z,4.02
2023-03-02T12:01:22.215Z,4.20
2023-03-02T12:03:48.586Z,4.43
2023-03-02T12:06:14.911Z,4.60
2023-03-02T12:08:43.199Z,4.68
2023-03-02T12:11:18.513Z,4.69
2023-03-02T12:13:45.810Z,4.52
2023-03-02T12:16:31.332Z,4.13
2023-03-02T12:18:57.895Z,4.05
2023-03-02T12:21:24.863Z,3.99
2023-03-02T12:23:51.135Z,3.96
2023-03-02T12:26:20.285Z,4.08
2023-03-02T12:29:01.133Z,4.18
2023-03-02T12:31:38.818Z,4.06
2023-03-02T12:34:14.051Z,4.09
2023-03-02T12:36:42.876Z,4.20
2023-03-02T12:39:09.209Z,4.38
2023-03-02T12:41:54.912Z,4.49
2023-03-02T12:44:40.241Z,4.49
2023-03-02T12:47:14.022Z,5.06
2023-03-02T12:49:51.137Z,5.33
2023-03-02T12:52:20.654Z,5.58
2023-03-02T12:54:58.550Z,5.72
2023-03-02T12:57:24.889Z,6.36
2023-03-02T12:59:52.518Z,7.44
2023-03-02T13:02:23.613Z,7.52
2023-03-02T13:05:16.448Z,6.88
2023-03-02T13:07:46.549Z,6.32
2023-03-02T13:10:25.882Z,7.40
2023-03-02T13:12:52.352Z,8.81
2023-03-02T13:15:18.788Z,9.91
2023-03-02T13:17:52.492Z,10.42
2023-03-02T13:20:20.148Z,10.21
2023-03-02T13:22:46.638Z,10.00
2023-03-02T13:25:22.492Z,10.19
2023-03-02T13:27:53.012Z,10.59
2023-03-02T13:30:27.756Z,10.46
2023-03-02T13:32:57.224Z,10.14
2023-03-02T13:35:26.650Z,10.46
2023-03-02T13:37:57.536Z,9.47
2023-03-02T13:40:26.678Z,8.39
2023-03-02T13:42:53.728Z,7.74
2023-03-02T13:45:27.441Z,7.23
2023-03-02T13:47:54.464Z,7.51
2023-03-02T13:50:20.937Z,7.97
2023-03-02T13:52:48.181Z,7.74
2023-03-02T13:55:15.830Z,8.11
2023-03-02T13:57:43.061Z,8.58
2023-03-02T14:00:14.938Z,8.81
2023-03-02T14:02:42.887Z,8.76
2023-03-02T14:05:16.848Z,8.23
2023-03-02T14:07:43.309Z,7.75
2023-03-02T14:10:10.608Z,7.32
2023-03-02T14:12:37.225Z,6.93
2023-03-02T14:15:04.035Z,6.56
2023-03-02T14:17:30.481Z,6.20
2023-03-02T14:19:56.906Z,5.97
2023-03-02T14:22:25.075Z,6.14
2023-03-02T14:24:51.486Z,6.24
2023-03-02T14:27:18.930Z,6.61
2023-03-02T14:29:46.333Z,6.97
2023-03-02T14:32:13.730Z,7.24
2023-03-02T14:34:40.337Z,7.42
2023-03-02T14:37:08.083Z,7.35
2023-03-02T14:39:38.692Z,7.60
2023-03-02T14:42:05.889Z,7.77
2023-03-02T14:44:32.297Z,7.72
2023-03-02T14:46:58.623Z,7.85
2023-03-02T14:49:25.384Z,8.00
2023-03-02T14:52:04.086Z,8.16
2023-03-02T14:54:40.769Z,8.48
2023-03-02T14:57:15.110Z,8.78
2023-03-02T14:59:41.502Z,9.01
2023-03-02T15:02:22.877Z,9.07
2023-03-02T15:04:55.976Z,9.03
2023-03-02T15:07:23.477Z,9.16
2023-03-02T15:09:49.793Z,8.84
2023-03-02T15:12:16.113Z,8.62
2023-03-02T15:14:42.408Z,8.30
2023-03-02T15:17:10.185Z,8.18
2023-03-02T15:19:36.493Z,7.97
2023-03-02T15:22:03.773Z,7.79
2023-03-02T15:24:33.179Z,7.72
2023-03-02T15:26:59.942Z,7.65
2023-03-02T15:29:26.333Z,7.48
2023-03-02T15:31:52.808Z,7.57
2023-03-02T15:34:19.193Z,7.46
2023-03-02T15:36:45.544Z,6.98
2023-03-02T15:39:13.873Z,6.43
2023-03-02T15:41:42.060Z,5.91
2023-03-02T15:44:15.732Z,5.49
2023-03-02T15:46:42.107Z,5.13
2023-03-02T15:49:08.873Z,4.87
2023-03-02T15:51:35.202Z,4.80
2023-03-02T15:54:01.515Z,4.74
2023-03-02T15:56:32.861Z,4.65
2023-03-02T15:59:05.308Z,4.53
2023-03-02T16:01:31.685Z,4.46
2023-03-02T16:04:00.925Z,4.35
2023-03-02T16:06:30.121Z,4.24
2023-03-02T16:08:56.437Z,4.11
2023-03-02T16:11:25.740Z,4.02
2023-03-02T16:13:52.398Z,3.95
2023-03-02T16:16:19.632Z,3.85
2023-03-02T16:18:55.948Z,3.72
2023-03-02T16:21:22.977Z,3.58
2023-03-02T16:23:49.510Z,3.51
2023-03-02T16:26:16.966Z,3.42
2023-03-02T16:28:43.340Z,3.35
2023-03-02T16:31:17.370Z,3.29
2023-03-02T16:33:44.157Z,3.22
2023-03-02T16:36:11.161Z,3.19
2023-03-02T16:38:37.558Z,3.15
2023-03-02T16:41:04.511Z,3.10
2023-03-02T16:43:31.160Z,3.05
2023-03-02T16:45:57.496Z,2.98
2023-03-02T16:48:23.890Z,2.89
2023-03-02T16:50:57.461Z,2.81
2023-03-02T16:53:23.856Z,2.72
2023-03-02T16:55:50.608Z,2.63
2023-03-02T16:58:16.946Z,2.53
2023-03-02T17:00:43.311Z,2.41
2023-03-02T17:03:09.677Z,2.27
2023-03-02T17:05:36.001Z,2.16
2023-03-02T17:08:02.786Z,2.03
2023-03-02T17:10:29.090Z,1.95
2023-03-02T17:12:55.497Z,1.87
2023-03-02T17:15:21.872Z,1.79
2023-03-02T17:17:48.177Z,1.71
2023-03-02T17:20:14.592Z,1.60
2023-03-02T17:22:40.894Z,1.48
2023-03-02T17:25:07.548Z,1.40
2023-03-02T17:27:33.867Z,1.27
2023-03-02T17:30:00.404Z,1.25
2023-03-02T17:32:26.769Z,1.15
2023-03-02T17:34:53.104Z,1.07
2023-03-02T17:37:19.512Z,0.96
2023-03-02T17:39:45.865Z,0.86
2023-03-02T17:42:12.187Z,0.73
2023-03-02T17:44:40.079Z,0.66
2023-03-02T17:47:08.204Z,0.58
2023-03-02T17:49:37.593Z,0.50
2023-03-02T17:52:03.937Z,0.48
2023-03-02T17:54:30.287Z,0.48
2023-03-02T17:56:56.621Z,0.41
2023-03-02T17:59:23.133Z,0.36
2023-03-02T18:01:49.478Z,0.29
2023-03-02T18:04:15.904Z,0.28
2023-03-02T18:06:42.269Z,0.23
2023-03-02T18:09:08.696Z,0.20
2023-03-02T18:11:35.028Z,0.12
2023-03-02T18:14:01.432Z,0.09
2023-03-02T18:16:29.198Z,0.05
2023-03-02T18:18:57.135Z,-0.02
2023-03-02T18:21:23.479Z,-0.04
2023-03-02T18:23:49.799Z,-0.11
2023-03-02T18:26:16.599Z,-0.16
2023-03-02T18:28:43.271Z,-0.19
2023-03-02T18:31:09.708Z,-0.24
2023-03-02T18:33:36.149Z,-0.28
2023-03-02T18:36:05.350Z,-0.28
2023-03-02T18:38:32.292Z,-0.30
2023-03-02T18:41:00.577Z,-0.30
2023-03-02T18:43:27.500Z,-0.30
2023-03-02T18:45:54.324Z,-0.34
2023-03-02T18:48:21.038Z,-0.30
2023-03-02T18:50:47.513Z,-0.30
2023-03-02T18:53:14.001Z,-0.30
2023-03-02T18:55:40.823Z,-0.34
2023-03-02T18:58:07.802Z,-0.38
2023-03-02T19:00:35.085Z,-0.38
2023-03-02T19:03:01.441Z,-0.42
2023-03-02T19:05:29.623Z,-0.50
2023-03-02T19:07:58.956Z,-0.56
2023-03-02T19:10:25.314Z,-0.65
2023-03-02T19:12:51.648Z,-0.76
2023-03-02T19:15:17.989Z,-0.79
2023-03-02T19:17:44.514Z,-0.82
2023-03-02T19:20:12.622Z,-0.85
2023-03-02T19:22:38.963Z,-0.92
2023-03-02T19:25:05.586Z,-0.95
2023-03-02T19:27:31.946Z,-0.99
2023-03-02T19:29:58.275Z,-0.95
2023-03-02T19:32:24.678Z,-0.89
2023-03-02T19:34:51.041Z,-0.84
2023-03-02T19:37:17.414Z,-0.79
2023-03-02T19:39:43.847Z,-0.76
2023-03-02T19:42:10.382Z,-0.73
2023-03-02T19:44:37.026Z,-0.68
2023-03-02T19:47:04.132Z,-0.64
2023-03-02T19:49:30.572Z,-0.60
2023-03-02T19:51:56.936Z,-0.63
2023-03-02T19:54:23.244Z,-0.61
2023-03-02T19:56:53.464Z,-0.61
2023-03-02T19:59:21.491Z,-0.58
2023-03-02T20:01:49.314Z,-0.57
2023-03-02T20:04:16.107Z,-0.57
2023-03-02T20:06:43.076Z,-0.55
2023-03-02T20:09:09.913Z,-0.54
2023-03-02T20:11:38.178Z,-0.51
2023-03-02T20:14:04.553Z,-0.51
2023-03-02T20:16:33.794Z,-0.50
2023-03-02T20:19:01.955Z,-0.51
2023-03-02T20:21:29.424Z,-0.54
2023-03-02T20:23:55.882Z,-0.55
2023-03-02T20:26:24.416Z,-0.59
2023-03-02T20:28:51.406Z,-0.63
2023-03-02T20:31:17.828Z,-0.68
2023-03-02T20:33:49.849Z,-0.66
2023-03-02T20:36:20.018Z,-0.69
2023-03-02T20:38:48.914Z,-0.73
2023-03-02T20:41:15.587Z,-0.76
2023-03-02T20:43:42.505Z,-0.81
2023-03-02T20:46:09.994Z,-0.87
2023-03-02T20:48:36.485Z,-0.91
2023-03-02T20:51:03.120Z,-0.95
2023-03-02T20:53:29.625Z,-1.00
2023-03-02T20:55:57.027Z,-1.05
2023-03-02T20:58:23.352Z,-1.07
2023-03-02T21:00:49.665Z,-1.11
2023-03-02T21:03:16.044Z,-1.16
2023-03-02T21:05:42.433Z,-1.21
2023-03-02T21:08:09.092Z,-1.19
2023-03-02T21:10:37.037Z,-1.23
2023-03-02T21:13:04.119Z,-1.24
2023-03-02T21:15:30.615Z,-1.24
2023-03-02T21:17:59.168Z,-1.26
2023-03-02T21:20:27.442Z,-1.29
2023-03-02T21:22:53.842Z,-1.29
2023-03-02T21:25:20.488Z,-1.32
2023-03-02T21:27:47.218Z,-1.33
2023-03-02T21:30:24.568Z,-1.38
2023-03-02T21:32:51.314Z,-1.47
2023-03-02T21:35:19.985Z,-1.49
2023-03-02T21:37:48.727Z,-1.54
2023-03-02T21:40:17.495Z,-1.51
2023-03-02T21:42:44.000Z,-1.51
2023-03-02T21:45:12.358Z,-1.55
2023-03-02T21:47:41.202Z,-1.53
2023-03-02T21:50:18.189Z,-1.55
2023-03-02T21:52:44.492Z,-1.55
2023-03-02T21:55:13.016Z,-1.62
2023-03-02T21:57:39.960Z,-1.71
2023-03-02T22:00:09.858Z,-1.74
2023-03-02T22:02:36.733Z,-1.74
2023-03-02T22:05:04.634Z,-1.79
2023-03-02T22:07:31.454Z,-1.76
2023-03-02T22:09:57.856Z,-1.74
2023-03-02T22:12:24.178Z,-1.77
2023-03-02T22:14:51.215Z,-1.84
2023-03-02T22:17:24.823Z,-1.89
2023-03-02T22:19:51.891Z,-1.90
2023-03-02T22:22:21.879Z,-1.89
2023-03-02T22:24:49.223Z,-1.87
2023-03-02T22:27:25.965Z,-1.97
2023-03-02T22:29:54.576Z,-1.99
2023-03-02T22:32:23.095Z,-1.98
2023-03-02T22:34:50.924Z,-1.88
2023-03-02T22:37:18.760Z,-1.79
2023-03-02T22:39:45.397Z,-1.72
2023-03-02T22:42:13.945Z,-1.72
2023-03-02T22:44:40.384Z,-1.68
2023-03-02T22:47:18.434Z,-1.68
2023-03-02T22:49:44.919Z,-1.71
2023-03-02T22:52:12.881Z,-1.63
2023-03-02T22:54:39.215Z,-1.50
2023-03-02T22:57:16.639Z,-1.58
2023-03-02T22:59:42.993Z,-1.64
2023-03-02T23:02:14.654Z,-1.70
2023-03-02T23:04:41.294Z,-1.71
2023-03-02T23:07:21.417Z,-1.74
2023-03-02T23:09:47.981Z,-1.83
2023-03-02T23:12:20.400Z,-1.95
2023-03-02T23:14:54.480Z,-2.01
2023-03-02T23:17:26.249Z,-2.04
2023-03-02T23:19:52.706Z,-2.09
2023-03-02T23:22:19.322Z,-2.11
2023-03-02T23:24:45.686Z,-2.09
2023-03-02T23:27:12.087Z,-2.04
2023-03-02T23:29:38.435Z,-2.01
2023-03-02T23:32:05.079Z,-1.99
2023-03-02T23:34:31.541Z,-2.06
2023-03-02T23:36:58.633Z,-2.09
2023-03-02T23:39:25.433Z,-2.14
2023-03-02T23:41:52.088Z,-2.27
2023-03-02T23:44:19.396Z,-2.32
2023-03-02T23:46:46.189Z,-2.32
2023-03-02T23:49:12.541Z,-2.43
2023-03-02T23:51:39.000Z,-2.44
2023-03-02T23:54:05.764Z,-2.41
2023-03-02T23:56:32.269Z,-2.32
2023-03-02T23:58:58.637Z,-2.24
